createdAt,value
2023-03-16T00:01:20.478Z,2.43
2023-03-16T07:04:20.879Z,0.52
2023-03-16T09:00:25.320Z,0.72
2023-03-16T10:08:24.306Z,0.52
2023-03-16T12:44:25.847Z,0.59
2023-03-16T12:56:26.393Z,0.50
2023-03-16T13:00:26.069Z,0.57
2023-03-16T13:04:26.401Z,0.54
2023-03-16T13:08:26.357Z,0.55
2023-03-16T13:12:26.397Z,0.57
2023-03-16T13:20:31.129Z,0.50
2023-03-16T13:28:26.895Z,0.51
2023-03-16T13:40:26.428Z,0.73
2023-03-16T13:44:26.413Z,0.78
2023-03-16T13:48:26.371Z,0.78
2023-03-16T13:52:25.967Z,0.77
2023-03-16T13:56:26.379Z,0.72
2023-03-16T14:00:26.406Z,0.59
2023-03-16T14:04:26.375Z,0.58
2023-03-16T14:08:26.879Z,0.56
2023-03-16T14:12:26.892Z,0.56
2023-03-16T14:16:26.954Z,0.52
2023-03-16T14:20:26.396Z,0.58
2023-03-16T14:24:26.386Z,0.63
2023-03-16T14:28:26.201Z,0.68
2023-03-16T14:32:26.503Z,0.74
2023-03-16T14:36:26.388Z,0.64
2023-03-16T14:40:26.403Z,0.70
2023-03-16T14:44:26.393Z,0.69
2023-03-16T14:48:26.431Z,0.56
2023-03-16T14:52:26.397Z,0.65
2023-03-16T14:56:26.903Z,0.68
2023-03-16T15:00:26.501Z,0.57
2023-03-16T15:04:26.924Z,0.59
2023-03-16T15:08:26.901Z,0.63
2023-03-16T15:12:26.777Z,0.63
2023-03-16T15:16:27.414Z,0.61
2023-03-16T15:20:27.443Z,0.54
2023-03-16T15:24:27.413Z,0.62
2023-03-16T15:28:27.439Z,0.62
2023-03-16T15:44:26.851Z,0.63
2023-03-16T15:52:26.955Z,0.50
2023-03-16T15:56:26.614Z,0.73
2023-03-16T16:00:26.948Z,0.60
2023-03-16T16:04:26.555Z,0.60
2023-03-16T16:08:26.945Z,0.67
2023-03-16T16:12:26.362Z,0.94
2023-03-16T16:16:26.449Z,1.05
2023-03-16T16:20:26.443Z,1.26
2023-03-16T18:20:28.116Z,4.28
2023-03-16T18:24:28.255Z,4.32
2023-03-16T18:28:28.362Z,4.30
2023-03-16T18:32:28.649Z,4.22
2023-03-16T18:36:28.714Z,4.23
2023-03-16T18:40:29.163Z,4.27
2023-03-16T18:44:29.075Z,4.23
2023-03-16T18:48:29.282Z,4.24
2023-03-16T18:52:29.459Z,4.32
2023-03-16T18:56:29.658Z,4.24
2023-03-16T19:00:30.007Z,4.22
2023-03-16T19:04:30.116Z,4.15
2023-03-16T19:08:30.319Z,4.13
2023-03-16T19:12:30.296Z,4.17
2023-03-16T19:16:30.304Z,4.17
2023-03-16T19:20:30.318Z,4.20
2023-03-16T19:24:30.224Z,4.17
2023-03-16T19:28:30.211Z,4.08
2023-03-16T19:32:30.202Z,4.03
2023-03-16T19:36:30.503Z,4.07
2023-03-16T19:40:30.491Z,4.08
2023-03-16T19:44:30.714Z,4.02
2023-03-16T19:48:30.937Z,3.96
2023-03-16T19:52:31.291Z,3.92
2023-03-16T19:56:31.366Z,3.99
2023-03-16T20:00:31.536Z,3.92
2023-03-16T20:04:31.747Z,3.89
2023-03-16T20:08:31.883Z,3.87
2023-03-16T20:12:31.957Z,3.83
2023-03-16T20:16:32.063Z,3.87
2023-03-16T20:20:32.222Z,3.86
2023-03-16T20:24:32.307Z,3.87
2023-03-16T21:04:32.654Z,3.61
2023-03-16T21:08:32.656Z,3.52
2023-03-16T21:12:32.782Z,3.64
2023-03-16T21:16:32.731Z,3.48
2023-03-16T21:20:32.753Z,3.51
2023-03-16T21:24:32.793Z,3.46
2023-03-16T21:28:32.864Z,3.49
2023-03-16T21:32:32.919Z,3.43
